sensor_id;sensor_type;location;lat;lon;timestamp;pressure;altitude;pressure_sealevel;temperature;humidity
20023;BME280;10172;42.054;24.546;2023-04-08T00:02:19;98306.63;;;9.33;76.41
20023;BME280;10172;42.054;24.546;2023-04-08T00:04:45;98281.88;;;8.90;76.20
20023;BME280;10172;42.054;24.546;2023-04-08T00:07:10;98260.53;;;8.64;76.75
20023;BME280;10172;42.054;24.546;2023-04-08T00:09:36;98288.56;;;8.08;79.12
20023;BME280;10172;42.054;24.546;2023-04-08T00:12:02;98276.88;;;8.86;75.85
20023;BME280;10172;42.054;24.546;2023-04-08T00:14:28;98280.44;;;8.71;75.09
20023;BME280;10172;42.054;24.546;2023-04-08T00:16:54;98300.84;;;8.55;77.44
20023;BME280;10172;42.054;24.546;2023-04-08T00:19:19;98321.31;;;7.92;79.91
20023;BME280;10172;42.054;24.546;2023-04-08T00:21:45;98298.84;;;7.03;83.44
20023;BME280;10172;42.054;24.546;2023-04-08T00:24:10;98295.41;;;7.65;80.64
20023;BME280;10172;42.054;24.546;2023-04-08T00:26:36;98287.50;;;7.81;78.10
20023;BME280;10172;42.054;24.546;2023-04-08T00:29:02;98274.16;;;7.82;77.20
20023;BME280;10172;42.054;24.546;2023-04-08T00:31:27;98254.56;;;8.46;73.55
20023;BME280;10172;42.054;24.546;2023-04-08T00:33:52;98289.53;;;8.67;72.84
20023;BME280;10172;42.054;24.546;2023-04-08T00:36:18;98267.03;;;8.44;71.75
20023;BME280;10172;42.054;24.546;2023-04-08T00:38:44;98292.13;;;8.23;71.92
20023;BME280;10172;42.054;24.546;2023-04-08T00:41:09;98299.59;;;8.16;73.26
20023;BME280;10172;42.054;24.546;2023-04-08T00:43:35;98270.50;;;8.30;72.22
20023;BME280;10172;42.054;24.546;2023-04-08T00:46:00;98302.88;;;8.65;71.45
20023;BME280;10172;42.054;24.546;2023-04-08T00:48:26;98304.25;;;8.43;74.18
20023;BME280;10172;42.054;24.546;2023-04-08T00:50:51;98265.00;;;7.26;81.90
20023;BME280;10172;42.054;24.546;2023-04-08T00:53:18;98275.94;;;7.19;83.02
20023;BME280;10172;42.054;24.546;2023-04-08T00:55:44;98323.53;;;8.74;77.56
20023;BME280;10172;42.054;24.546;2023-04-08T00:58:10;98308.16;;;8.65;74.38
20023;BME280;10172;42.054;24.546;2023-04-08T01:00:39;98323.44;;;8.62;75.33
20023;BME280;10172;42.054;24.546;2023-04-08T01:08:07;98316.75;;;6.98;88.55
20023;BME280;10172;42.054;24.546;2023-04-08T01:10:34;98304.66;;;6.77;90.18
20023;BME280;10172;42.054;24.546;2023-04-08T01:13:07;98307.78;;;7.34;88.81
20023;BME280;10172;42.054;24.546;2023-04-08T01:15:36;98290.91;;;7.83;84.78
20023;BME280;10172;42.054;24.546;2023-04-08T01:18:06;98273.47;;;7.79;84.22
20023;BME280;10172;42.054;24.546;2023-04-08T01:20:32;98320.09;;;7.81;83.61
20023;BME280;10172;42.054;24.546;2023-04-08T01:25:56;98324.81;;;7.45;85.28
20023;BME280;10172;42.054;24.546;2023-04-08T01:28:24;98326.50;;;7.93;85.59
20023;BME280;10172;42.054;24.546;2023-04-08T01:30:54;98325.44;;;8.43;83.02
20023;BME280;10172;42.054;24.546;2023-04-08T01:33:21;98316.16;;;8.04;80.89
20023;BME280;10172;42.054;24.546;2023-04-08T01:35:47;98316.53;;;7.82;81.60
20023;BME280;10172;42.054;24.546;2023-04-08T01:38:15;98327.81;;;8.77;78.25
20023;BME280;10172;42.054;24.546;2023-04-08T01:40:43;98308.22;;;8.50;78.72
20023;BME280;10172;42.054;24.546;2023-04-08T01:43:10;98325.28;;;9.03;76.89
20023;BME280;10172;42.054;24.546;2023-04-08T01:45:37;98314.41;;;9.22;76.99
20023;BME280;10172;42.054;24.546;2023-04-08T01:48:03;98344.72;;;9.75;76.19
20023;BME280;10172;42.054;24.546;2023-04-08T01:50:31;98331.94;;;9.67;75.46
20023;BME280;10172;42.054;24.546;2023-04-08T01:52:59;98322.69;;;7.83;81.69
20023;BME280;10172;42.054;24.546;2023-04-08T01:55:25;98339.97;;;7.42;87.27
20023;BME280;10172;42.054;24.546;2023-04-08T01:57:52;98306.72;;;7.05;91.19
20023;BME280;10172;42.054;24.546;2023-04-08T02:00:24;98351.13;;;7.15;91.73
20023;BME280;10172;42.054;24.546;2023-04-08T02:02:51;98343.34;;;7.92;86.78
20023;BME280;10172;42.054;24.546;2023-04-08T02:05:17;98335.53;;;8.20;83.97
20023;BME280;10172;42.054;24.546;2023-04-08T02:07:43;98341.28;;;8.88;81.72
20023;BME280;10172;42.054;24.546;2023-04-08T02:10:11;98311.56;;;7.45;85.77
20023;BME280;10172;42.054;24.546;2023-04-08T02:12:36;98347.09;;;6.57;92.71
20023;BME280;10172;42.054;24.546;2023-04-08T02:15:02;98307.00;;;6.83;91.99
20023;BME280;10172;42.054;24.546;2023-04-08T02:20:17;98357.31;;;8.57;83.63
20023;BME280;10172;42.054;24.546;2023-04-08T02:22:59;98346.84;;;7.93;85.40
20023;BME280;10172;42.054;24.546;2023-04-08T02:25:28;98358.91;;;7.01;92.97
20023;BME280;10172;42.054;24.546;2023-04-08T02:27:55;98349.22;;;7.17;92.19
20023;BME280;10172;42.054;24.546;2023-04-08T02:30:22;98343.97;;;7.00;93.15
20023;BME280;10172;42.054;24.546;2023-04-08T02:32:50;98358.44;;;7.10;92.15
20023;BME280;10172;42.054;24.546;2023-04-08T02:35:18;98357.41;;;6.10;100.00
20023;BME280;10172;42.054;24.546;2023-04-08T02:37:45;98326.53;;;6.63;100.00
20023;BME280;10172;42.054;24.546;2023-04-08T02:40:29;98373.00;;;7.67;90.77
20023;BME280;10172;42.054;24.546;2023-04-08T02:42:55;98352.56;;;7.54;91.39
20023;BME280;10172;42.054;24.546;2023-04-08T02:45:22;98355.78;;;7.43;91.39
20023;BME280;10172;42.054;24.546;2023-04-08T02:47:51;98317.56;;;7.80;88.32
20023;BME280;10172;42.054;24.546;2023-04-08T02:50:17;98345.28;;;7.42;89.08
20023;BME280;10172;42.054;24.546;2023-04-08T02:52:42;98328.53;;;7.08;92.54
20023;BME280;10172;42.054;24.546;2023-04-08T02:55:09;98331.72;;;6.82;91.11
20023;BME280;10172;42.054;24.546;2023-04-08T02:57:39;98365.72;;;6.73;94.42
20023;BME280;10172;42.054;24.546;2023-04-08T03:00:06;98383.81;;;6.80;98.32
20023;BME280;10172;42.054;24.546;2023-04-08T03:02:32;98323.03;;;6.29;98.89
20023;BME280;10172;42.054;24.546;2023-04-08T03:04:58;98393.72;;;6.59;100.00
20023;BME280;10172;42.054;24.546;2023-04-08T03:07:24;98388.44;;;6.24;100.00
20023;BME280;10172;42.054;24.546;2023-04-08T03:09:50;98385.72;;;6.25;100.00
20023;BME280;10172;42.054;24.546;2023-04-08T03:12:15;98373.78;;;5.99;100.00
20023;BME280;10172;42.054;24.546;2023-04-08T03:14:41;98361.25;;;7.07;100.00
20023;BME280;10172;42.054;24.546;2023-04-08T03:17:06;98360.34;;;7.57;94.51
20023;BME280;10172;42.054;24.546;2023-04-08T03:19:32;98368.97;;;8.38;89.19
20023;BME280;10172;42.054;24.546;2023-04-08T03:21:57;98345.38;;;7.56;90.96
20023;BME280;10172;42.054;24.546;2023-04-08T03:24:23;98361.00;;;7.60;92.15
20023;BME280;10172;42.054;24.546;2023-04-08T03:26:49;98347.16;;;7.40;92.11
20023;BME280;10172;42.054;24.546;2023-04-08T03:29:14;98354.53;;;6.68;98.23
20023;BME280;10172;42.054;24.546;2023-04-08T03:31:39;98377.09;;;6.39;100.00
20023;BME280;10172;42.054;24.546;2023-04-08T03:34:05;98374.94;;;6.11;100.00
20023;BME280;10172;42.054;24.546;2023-04-08T03:36:30;98343.22;;;6.47;99.87
20023;BME280;10172;42.054;24.546;2023-04-08T03:38:56;98373.56;;;6.91;96.82
20023;BME280;10172;42.054;24.546;2023-04-08T03:41:22;98354.34;;;6.88;96.94
20023;BME280;10172;42.054;24.546;2023-04-08T03:43:47;98347.09;;;7.57;93.54
20023;BME280;10172;42.054;24.546;2023-04-08T03:46:13;98377.44;;;7.82;90.26
20023;BME280;10172;42.054;24.546;2023-04-08T03:48:38;98371.03;;;8.33;87.93
20023;BME280;10172;42.054;24.546;2023-04-08T03:51:03;98378.78;;;8.82;85.46
20023;BME280;10172;42.054;24.546;2023-04-08T03:53:29;98382.56;;;9.08;83.25
20023;BME280;10172;42.054;24.546;2023-04-08T03:55:55;98350.78;;;9.06;80.92
20023;BME280;10172;42.054;24.546;2023-04-08T03:58:21;98387.63;;;9.40;79.74
20023;BME280;10172;42.054;24.546;2023-04-08T04:00:47;98406.66;;;8.43;82.01
20023;BME280;10172;42.054;24.546;2023-04-08T04:03:12;98379.81;;;7.23;90.18
20023;BME280;10172;42.054;24.546;2023-04-08T04:05:38;98409.00;;;6.87;95.68
20023;BME280;10172;42.054;24.546;2023-04-08T04:08:04;98401.41;;;7.64;92.47
20023;BME280;10172;42.054;24.546;2023-04-08T04:10:30;98376.63;;;7.49;90.34
20023;BME280;10172;42.054;24.546;2023-04-08T04:12:55;98405.78;;;7.65;90.38
20023;BME280;10172;42.054;24.546;2023-04-08T04:15:21;98397.94;;;7.46;91.58
20023;BME280;10172;42.054;24.546;2023-04-08T04:17:47;98415.53;;;7.80;90.97
20023;BME280;10172;42.054;24.546;2023-04-08T04:20:14;98371.72;;;7.90;88.41
20023;BME280;10172;42.054;24.546;2023-04-08T04:22:40;98410.34;;;8.41;86.37
20023;BME280;10172;42.054;24.546;2023-04-08T04:25:06;98400.06;;;8.19;86.39
20023;BME280;10172;42.054;24.546;2023-04-08T04:27:32;98379.94;;;7.37;91.32
20023;BME280;10172;42.054;24.546;2023-04-08T04:29:57;98411.00;;;7.66;90.40
20023;BME280;10172;42.054;24.546;2023-04-08T04:32:24;98384.69;;;7.63;89.97
20023;BME280;10172;42.054;24.546;2023-04-08T04:34:50;98392.63;;;7.31;93.21
20023;BME280;10172;42.054;24.546;2023-04-08T04:37:15;98416.94;;;6.53;99.54
20023;BME280;10172;42.054;24.546;2023-04-08T04:39:41;98400.97;;;6.54;100.00
20023;BME280;10172;42.054;24.546;2023-04-08T04:42:06;98420.63;;;6.32;100.00
20023;BME280;10172;42.054;24.546;2023-04-08T04:44:32;98415.47;;;6.65;100.00
20023;BME280;10172;42.054;24.546;2023-04-08T04:46:57;98407.75;;;7.11;100.00
20023;BME280;10172;42.054;24.546;2023-04-08T04:49:23;98403.06;;;7.82;96.07
20023;BME280;10172;42.054;24.546;2023-04-08T04:51:48;98404.19;;;8.09;92.52
20023;BME280;10172;42.054;24.546;2023-04-08T04:54:14;98415.06;;;8.81;87.20
20023;BME280;10172;42.054;24.546;2023-04-08T04:56:39;98413.94;;;8.24;88.53
20023;BME280;10172;42.054;24.546;2023-04-08T04:59:05;98415.91;;;8.05;92.73
20023;BME280;10172;42.054;24.546;2023-04-08T05:01:30;98430.53;;;8.28;89.54
20023;BME280;10172;42.054;24.546;2023-04-08T05:03:56;98442.69;;;8.48;88.14
20023;BME280;10172;42.054;24.546;2023-04-08T05:06:22;98411.50;;;7.07;97.18
20023;BME280;10172;42.054;24.546;2023-04-08T05:08:48;98441.25;;;7.45;97.12
20023;BME280;10172;42.054;24.546;2023-04-08T05:11:15;98459.97;;;7.58;97.66
20023;BME280;10172;42.054;24.546;2023-04-08T05:13:43;98415.91;;;6.55;100.00
20023;BME280;10172;42.054;24.546;2023-04-08T05:16:08;98441.28;;;6.41;100.00
20023;BME280;10172;42.054;24.546;2023-04-08T05:18:35;98453.31;;;6.48;100.00
20023;BME280;10172;42.054;24.546;2023-04-08T05:21:01;98455.50;;;6.74;100.00
20023;BME280;10172;42.054;24.546;2023-04-08T05:23:26;98404.50;;;7.06;100.00
20023;BME280;10172;42.054;24.546;2023-04-08T05:25:52;98442.91;;;8.12;99.75
20023;BME280;10172;42.054;24.546;2023-04-08T05:28:17;98454.78;;;8.05;99.29
20023;BME280;10172;42.054;24.546;2023-04-08T05:30:50;98459.25;;;7.39;100.00
20023;BME280;10172;42.054;24.546;2023-04-08T05:33:16;98451.75;;;7.47;100.00
20023;BME280;10172;42.054;24.546;2023-04-08T05:35:42;98437.31;;;7.19;100.00
20023;BME280;10172;42.054;24.546;2023-04-08T05:38:07;98443.59;;;8.15;98.77
20023;BME280;10172;42.054;24.546;2023-04-08T05:40:33;98446.72;;;9.14;92.12
20023;BME280;10172;42.054;24.546;2023-04-08T05:42:58;98448.94;;;9.22;89.64
20023;BME280;10172;42.054;24.546;2023-04-08T05:45:24;98466.81;;;9.48;86.70
20023;BME280;10172;42.054;24.546;2023-04-08T05:47:49;98447.28;;;9.19;88.16
20023;BME280;10172;42.054;24.546;2023-04-08T05:50:15;98436.47;;;8.00;100.00
20023;BME280;10172;42.054;24.546;2023-04-08T05:52:44;98439.38;;;8.11;100.00
20023;BME280;10172;42.054;24.546;2023-04-08T05:55:13;98449.84;;;7.66;100.00
20023;BME280;10172;42.054;24.546;2023-04-08T05:57:39;98455.50;;;7.43;100.00
20023;BME280;10172;42.054;24.546;2023-04-08T06:00:06;98471.06;;;7.49;100.00
20023;BME280;10172;42.054;24.546;2023-04-08T06:02:32;98451.09;;;7.92;100.00
20023;BME280;10172;42.054;24.546;2023-04-08T06:04:58;98422.69;;;6.95;100.00
20023;BME280;10172;42.054;24.546;2023-04-08T06:07:24;98452.91;;;7.91;100.00
20023;BME280;10172;42.054;24.546;2023-04-08T06:09:49;98424.03;;;8.79;100.00
20023;BME280;10172;42.054;24.546;2023-04-08T06:12:15;98409.72;;;8.52;100.00
20023;BME280;10172;42.054;24.546;2023-04-08T06:14:40;98447.41;;;8.27;100.00
20023;BME280;10172;42.054;24.546;2023-04-08T06:17:06;98447.00;;;7.53;100.00
20023;BME280;10172;42.054;24.546;2023-04-08T06:19:32;98448.66;;;7.71;100.00
20023;BME280;10172;42.054;24.546;2023-04-08T06:21:57;98411.69;;;7.86;100.00
20023;BME280;10172;42.054;24.546;2023-04-08T06:24:27;98464.34;;;7.92;100.00
20023;BME280;10172;42.054;24.546;2023-04-08T06:26:54;98463.09;;;7.66;100.00
20023;BME280;10172;42.054;24.546;2023-04-08T06:29:21;98465.94;;;8.27;100.00
20023;BME280;10172;42.054;24.546;2023-04-08T06:31:47;98398.63;;;8.45;100.00
20023;BME280;10172;42.054;24.546;2023-04-08T06:34:13;98454.22;;;8.31;100.00
20023;BME280;10172;42.054;24.546;2023-04-08T06:36:38;98442.44;;;8.36;100.00
20023;BME280;10172;42.054;24.546;2023-04-08T06:39:04;98438.28;;;8.78;100.00
20023;BME280;10172;42.054;24.546;2023-04-08T06:41:29;98419.19;;;9.01;96.01
20023;BME280;10172;42.054;24.546;2023-04-08T06:43:55;98441.09;;;9.48;92.12
20023;BME280;10172;42.054;24.546;2023-04-08T06:46:21;98419.84;;;10.05;91.05
20023;BME280;10172;42.054;24.546;2023-04-08T06:48:46;98421.56;;;10.73;85.21
20023;BME280;10172;42.054;24.546;2023-04-08T06:51:12;98446.78;;;10.95;83.03
20023;BME280;10172;42.054;24.546;2023-04-08T06:53:37;98450.91;;;11.38;80.17
20023;BME280;10172;42.054;24.546;2023-04-08T06:56:03;98439.28;;;11.89;74.56
20023;BME280;10172;42.054;24.546;2023-04-08T06:58:29;98431.28;;;11.26;75.34
20023;BME280;10172;42.054;24.546;2023-04-08T07:00:54;98464.59;;;10.80;75.87
20023;BME280;10172;42.054;24.546;2023-04-08T07:03:21;98460.41;;;10.76;78.67
20023;BME280;10172;42.054;24.546;2023-04-08T07:05:46;98463.28;;;11.64;76.13
20023;BME280;10172;42.054;24.546;2023-04-08T07:08:12;98447.50;;;10.97;76.13
20023;BME280;10172;42.054;24.546;2023-04-08T07:10:38;98421.19;;;11.57;75.65
20023;BME280;10172;42.054;24.546;2023-04-08T07:13:03;98443.53;;;10.90;75.20
20023;BME280;10172;42.054;24.546;2023-04-08T07:15:29;98453.06;;;11.71;74.98
20023;BME280;10172;42.054;24.546;2023-04-08T07:17:55;98445.47;;;11.39;73.57
20023;BME280;10172;42.054;24.546;2023-04-08T07:20:21;98460.66;;;11.25;75.64
20023;BME280;10172;42.054;24.546;2023-04-08T07:22:47;98442.59;;;10.64;77.04
20023;BME280;10172;42.054;24.546;2023-04-08T07:25:13;98459.22;;;10.67;78.69
20023;BME280;10172;42.054;24.546;2023-04-08T07:27:38;98447.41;;;10.45;80.05
20023;BME280;10172;42.054;24.546;2023-04-08T07:30:05;98414.94;;;10.40;81.12
20023;BME280;10172;42.054;24.546;2023-04-08T07:32:32;98459.78;;;11.12;80.00
20023;BME280;10172;42.054;24.546;2023-04-08T07:34:58;98449.13;;;11.12;79.79
20023;BME280;10172;42.054;24.546;2023-04-08T07:37:24;98427.66;;;11.27;78.98
20023;BME280;10172;42.054;24.546;2023-04-08T07:39:49;98438.47;;;11.76;77.69
20023;BME280;10172;42.054;24.546;2023-04-08T07:42:15;98469.28;;;12.06;76.90
20023;BME280;10172;42.054;24.546;2023-04-08T07:44:41;98459.78;;;11.89;78.39
20023;BME280;10172;42.054;24.546;2023-04-08T07:47:06;98449.53;;;12.08;79.60
20023;BME280;10172;42.054;24.546;2023-04-08T07:49:33;98411.22;;;12.22;80.05
20023;BME280;10172;42.054;24.546;2023-04-08T07:51:58;98454.03;;;12.44;80.08
20023;BME280;10172;42.054;24.546;2023-04-08T07:54:24;98404.19;;;12.68;78.70
20023;BME280;10172;42.054;24.546;2023-04-08T07:56:49;98425.94;;;12.15;81.61
20023;BME280;10172;42.054;24.546;2023-04-08T07:59:15;98447.19;;;12.52;79.62
20023;BME280;10172;42.054;24.546;2023-04-08T08:01:40;98453.25;;;12.18;81.78
20023;BME280;10172;42.054;24.546;2023-04-08T08:04:06;98462.84;;;12.21;82.75
20023;BME280;10172;42.054;24.546;2023-04-08T08:06:31;98437.50;;;11.90;82.96
20023;BME280;10172;42.054;24.546;2023-04-08T08:08:57;98477.34;;;12.66;82.18
20023;BME280;10172;42.054;24.546;2023-04-08T08:11:23;98439.06;;;12.54;81.63
20023;BME280;10172;42.054;24.546;2023-04-08T08:13:49;98468.25;;;12.68;80.45
20023;BME280;10172;42.054;24.546;2023-04-08T08:16:14;98476.66;;;13.46;77.04
20023;BME280;10172;42.054;24.546;2023-04-08T08:18:40;98481.06;;;13.58;76.52
20023;BME280;10172;42.054;24.546;2023-04-08T08:21:06;98482.50;;;13.16;78.51
20023;BME280;10172;42.054;24.546;2023-04-08T08:23:32;98456.56;;;13.05;78.08
20023;BME280;10172;42.054;24.546;2023-04-08T08:26:05;98446.56;;;12.96;79.98
20023;BME280;10172;42.054;24.546;2023-04-08T08:28:32;98449.06;;;12.87;78.36
20023;BME280;10172;42.054;24.546;2023-04-08T08:30:58;98457.69;;;12.90;77.42
20023;BME280;10172;42.054;24.546;2023-04-08T08:33:24;98455.81;;;13.03;76.97
20023;BME280;10172;42.054;24.546;2023-04-08T08:35:50;98475.81;;;12.98;76.82
20023;BME280;10172;42.054;24.546;2023-04-08T08:38:17;98466.75;;;13.24;75.16
20023;BME280;10172;42.054;24.546;2023-04-08T08:40:45;98456.91;;;12.77;74.66
20023;BME280;10172;42.054;24.546;2023-04-08T08:43:11;98414.41;;;12.74;75.36
20023;BME280;10172;42.054;24.546;2023-04-08T08:45:40;98467.75;;;13.34;74.33
20023;BME280;10172;42.054;24.546;2023-04-08T08:48:07;98428.91;;;12.23;78.43
20023;BME280;10172;42.054;24.546;2023-04-08T08:50:35;98455.16;;;12.89;76.65
20023;BME280;10172;42.054;24.546;2023-04-08T08:53:01;98447.69;;;13.29;75.20
20023;BME280;10172;42.054;24.546;2023-04-08T08:55:29;98445.59;;;13.56;73.79
20023;BME280;10172;42.054;24.546;2023-04-08T08:57:56;98464.31;;;12.97;75.10
20023;BME280;10172;42.054;24.546;2023-04-08T09:00:36;98417.81;;;12.29;79.34
20023;BME280;10172;42.054;24.546;2023-04-08T09:03:21;98458.09;;;11.88;83.52
20023;BME280;10172;42.054;24.546;2023-04-08T09:05:57;98432.66;;;12.80;80.17
20023;BME280;10172;42.054;24.546;2023-04-08T09:08:36;98469.91;;;12.82;78.60
20023;BME280;10172;42.054;24.546;2023-04-08T09:11:19;98445.28;;;12.06;82.79
20023;BME280;10172;42.054;24.546;2023-04-08T09:13:46;98476.19;;;12.21;82.95
20023;BME280;10172;42.054;24.546;2023-04-08T09:16:17;98422.25;;;11.79;85.36
20023;BME280;10172;42.054;24.546;2023-04-08T09:18:43;98468.19;;;11.95;82.57
20023;BME280;10172;42.054;24.546;2023-04-08T09:21:11;98432.78;;;12.19;83.12
20023;BME280;10172;42.054;24.546;2023-04-08T09:23:48;98469.31;;;12.78;79.38
20023;BME280;10172;42.054;24.546;2023-04-08T09:26:21;98463.19;;;13.12;77.90
20023;BME280;10172;42.054;24.546;2023-04-08T09:28:59;98468.16;;;13.41;75.96
20023;BME280;10172;42.054;24.546;2023-04-08T09:31:30;98468.69;;;13.79;73.61
20023;BME280;10172;42.054;24.546;2023-04-08T09:34:00;98464.88;;;11.02;84.20
20023;BME280;10172;42.054;24.546;2023-04-08T09:36:33;98461.91;;;11.71;83.68
20023;BME280;10172;42.054;24.546;2023-04-08T09:38:58;98449.88;;;11.91;80.48
20023;BME280;10172;42.054;24.546;2023-04-08T09:41:27;98454.91;;;11.70;81.42
20023;BME280;10172;42.054;24.546;2023-04-08T09:43:54;98454.78;;;11.72;81.38
20023;BME280;10172;42.054;24.546;2023-04-08T09:46:35;98466.41;;;12.45;79.22
20023;BME280;10172;42.054;24.546;2023-04-08T09:49:10;98470.56;;;13.09;76.43
20023;BME280;10172;42.054;24.546;2023-04-08T09:51:48;98447.91;;;13.26;73.89
20023;BME280;10172;42.054;24.546;2023-04-08T09:54:20;98437.34;;;14.25;71.41
20023;BME280;10172;42.054;24.546;2023-04-08T09:56:51;98458.19;;;14.33;70.94
20023;BME280;10172;42.054;24.546;2023-04-08T09:59:20;98465.84;;;14.60;69.85
20023;BME280;10172;42.054;24.546;2023-04-08T10:01:52;98471.69;;;14.43;68.97
20023;BME280;10172;42.054;24.546;2023-04-08T10:04:19;98457.81;;;14.49;68.43
20023;BME280;10172;42.054;24.546;2023-04-08T10:06:53;98440.59;;;13.16;73.21
20023;BME280;10172;42.054;24.546;2023-04-08T10:09:21;98424.47;;;12.11;77.65
20023;BME280;10172;42.054;24.546;2023-04-08T10:11:48;98430.22;;;12.05;80.17
20023;BME280;10172;42.054;24.546;2023-04-08T10:14:14;98424.78;;;12.19;78.71
20023;BME280;10172;42.054;24.546;2023-04-08T10:16:40;98457.09;;;12.27;78.46
20023;BME280;10172;42.054;24.546;2023-04-08T10:19:37;98454.75;;;12.82;77.41
20023;BME280;10172;42.054;24.546;2023-04-08T10:27:40;98428.84;;;14.20;70.82
20023;BME280;10172;42.054;24.546;2023-04-08T10:32:54;98427.63;;;14.47;67.94
20023;BME280;10172;42.054;24.546;2023-04-08T10:35:36;98440.66;;;14.07;69.32
20023;BME280;10172;42.054;24.546;2023-04-08T10:38:02;98429.97;;;13.39;71.92
20023;BME280;10172;42.054;24.546;2023-04-08T10:40:28;98431.28;;;14.23;71.57
20023;BME280;10172;42.054;24.546;2023-04-08T10:43:00;98392.16;;;14.00;71.13
20023;BME280;10172;42.054;24.546;2023-04-08T10:45:26;98412.81;;;14.31;70.10
20023;BME280;10172;42.054;24.546;2023-04-08T10:47:51;98387.25;;;13.50;72.81
20023;BME280;10172;42.054;24.546;2023-04-08T10:50:18;98394.97;;;13.19;75.12
20023;BME280;10172;42.054;24.546;2023-04-08T10:52:52;98402.84;;;14.00;75.04
20023;BME280;10172;42.054;24.546;2023-04-08T10:55:25;98379.03;;;14.08;71.07
20023;BME280;10172;42.054;24.546;2023-04-08T10:57:53;98391.38;;;14.54;69.93
20023;BME280;10172;42.054;24.546;2023-04-08T11:00:32;98367.56;;;14.71;70.82
20023;BME280;10172;42.054;24.546;2023-04-08T11:03:09;98383.50;;;15.25;67.14
20023;BME280;10172;42.054;24.546;2023-04-08T11:05:35;98374.25;;;15.29;67.51
20023;BME280;10172;42.054;24.546;2023-04-08T11:08:01;98341.59;;;15.04;67.07
20023;BME280;10172;42.054;24.546;2023-04-08T11:10:27;98361.28;;;15.76;65.76
20023;BME280;10172;42.054;24.546;2023-04-08T11:12:56;98353.69;;;15.81;65.48
20023;BME280;10172;42.054;24.546;2023-04-08T11:15:28;98375.28;;;16.19;63.73
20023;BME280;10172;42.054;24.546;2023-04-08T11:17:54;98365.75;;;16.45;63.93
20023;BME280;10172;42.054;24.546;2023-04-08T11:20:20;98370.69;;;16.40;63.23
20023;BME280;10172;42.054;24.546;2023-04-08T11:22:47;98349.63;;;15.66;64.54
20023;BME280;10172;42.054;24.546;2023-04-08T11:25:12;98359.06;;;15.60;65.10
20023;BME280;10172;42.054;24.546;2023-04-08T11:27:38;98344.25;;;15.35;66.10
20023;BME280;10172;42.054;24.546;2023-04-08T11:30:06;98349.91;;;15.93;64.25
20023;BME280;10172;42.054;24.546;2023-04-08T11:32:34;98333.63;;;16.44;61.61
20023;BME280;10172;42.054;24.546;2023-04-08T11:35:03;98358.75;;;17.02;60.50
20023;BME280;10172;42.054;24.546;2023-04-08T11:37:41;98346.72;;;17.15;59.82
20023;BME280;10172;42.054;24.546;2023-04-08T11:40:11;98360.44;;;17.03;60.49
20023;BME280;10172;42.054;24.546;2023-04-08T11:42:38;98349.69;;;16.15;62.50
20023;BME280;10172;42.054;24.546;2023-04-08T11:45:11;98338.38;;;15.72;65.01
20023;BME280;10172;42.054;24.546;2023-04-08T11:47:37;98358.47;;;15.36;66.61
20023;BME280;10172;42.054;24.546;2023-04-08T11:50:03;98353.91;;;15.47;66.71
20023;BME280;10172;42.054;24.546;2023-04-08T11:52:46;98342.59;;;15.65;66.05
20023;BME280;10172;42.054;24.546;2023-04-08T11:55:30;98352.50;;;15.74;66.20
20023;BME280;10172;42.054;24.546;2023-04-08T11:58:01;98329.72;;;15.59;66.41
20023;BME280;10172;42.054;24.546;2023-04-08T12:00:27;98342.72;;;15.42;67.21
20023;BME280;10172;42.054;24.546;2023-04-08T12:02:53;98315.03;;;15.32;67.09
20023;BME280;10172;42.054;24.546;2023-04-08T12:05:19;98353.91;;;15.27;67.47
20023;BME280;10172;42.054;24.546;2023-04-08T12:07:44;98319.63;;;15.30;67.40
20023;BME280;10172;42.054;24.546;2023-04-08T12:10:11;98342.47;;;15.45;67.18
20023;BME280;10172;42.054;24.546;2023-04-08T12:12:37;98331.03;;;15.23;67.78
20023;BME280;10172;42.054;24.546;2023-04-08T12:15:03;98330.41;;;15.61;67.28
20023;BME280;10172;42.054;24.546;2023-04-08T12:17:29;98351.69;;;15.83;66.58
20023;BME280;10172;42.054;24.546;2023-04-08T12:19:55;98317.28;;;15.37;68.03
20023;BME280;10172;42.054;24.546;2023-04-08T12:22:21;98331.66;;;15.36;68.33
20023;BME280;10172;42.054;24.546;2023-04-08T12:24:47;98299.72;;;15.23;69.89
20023;BME280;10172;42.054;24.546;2023-04-08T12:27:12;98335.22;;;15.57;68.99
20023;BME280;10172;42.054;24.546;2023-04-08T12:29:38;98324.69;;;15.65;69.58
20023;BME280;10172;42.054;24.546;2023-04-08T12:32:04;98290.34;;;15.38;69.55
20023;BME280;10172;42.054;24.546;2023-04-08T12:34:30;98291.00;;;15.31;68.94
20023;BME280;10172;42.054;24.546;2023-04-08T12:36:56;98321.38;;;15.41;69.63
20023;BME280;10172;42.054;24.546;2023-04-08T12:39:21;98297.06;;;15.03;70.13
20023;BME280;10172;42.054;24.546;2023-04-08T12:41:47;98298.00;;;15.22;69.28
20023;BME280;10172;42.054;24.546;2023-04-08T12:44:13;98300.16;;;15.28;70.18
20023;BME280;10172;42.054;24.546;2023-04-08T12:46:39;98303.75;;;15.38;70.30
20023;BME280;10172;42.054;24.546;2023-04-08T12:49:04;98301.06;;;15.38;68.35
20023;BME280;10172;42.054;24.546;2023-04-08T12:51:30;98290.16;;;15.51;68.76
20023;BME280;10172;42.054;24.546;2023-04-08T12:53:56;98284.69;;;16.02;67.09
20023;BME280;10172;42.054;24.546;2023-04-08T12:56:21;98308.03;;;16.30;65.21
20023;BME280;10172;42.054;24.546;2023-04-08T12:58:47;98286.56;;;16.21;66.54
20023;BME280;10172;42.054;24.546;2023-04-08T13:01:13;98310.56;;;16.03;66.53
20023;BME280;10172;42.054;24.546;2023-04-08T13:03:38;98302.47;;;15.93;67.44
20023;BME280;10172;42.054;24.546;2023-04-08T13:06:05;98296.00;;;15.66;68.09
20023;BME280;10172;42.054;24.546;2023-04-08T13:08:30;98272.63;;;15.77;67.03
20023;BME280;10172;42.054;24.546;2023-04-08T13:10:56;98272.66;;;15.87;67.47
20023;BME280;10172;42.054;24.546;2023-04-08T13:13:21;98281.19;;;16.11;67.16